Time;durP1;ratioP1;P1;durP2;ratioP2;P2;SDS_P1;SDS_P2;PMS_P1;PMS_P2;Temp;Humidity;BMP_temperature;BMP_pressure;BME280_temperature;BME280_humidity;BME280_pressure;Samples;Min_cycle;Max_cycle;Signal;HPM_P1;HPM_P2
2023/08/17 00:00:33;;;;;;;13.52;6.93;;;;;;;20.93;52.87;97022.19;6199551;28;20116;-67
2023/08/17 00:03:39;;;;;;;15.73;7.57;;;;;;;20.89;52.95;97012.81;6202407;28;20042;-67
2023/08/17 00:06:43;;;;;;;14.68;7.88;;;;;;;20.91;53.23;97021.50;6203840;28;20111;-67
2023/08/17 00:09:47;;;;;;;14.23;7.75;;;;;;;20.83;53.42;97024.13;6201694;28;20046;-67
2023/08/17 00:12:51;;;;;;;16.30;7.65;;;;;;;20.68;53.58;97021.22;6199864;28;20049;-66
2023/08/17 00:15:55;;;;;;;14.15;7.53;;;;;;;20.66;53.96;97027.72;6203623;28;20433;-66
2023/08/17 00:18:57;;;;;;;15.00;8.00;;;;;;;20.59;54.34;97028.34;6200639;28;20045;-67
2023/08/17 00:22:01;;;;;;;12.43;7.30;;;;;;;20.49;54.52;97030.25;6209204;28;20104;-66
2023/08/17 00:25:05;;;;;;;16.95;8.75;;;;;;;20.44;54.97;97027.25;6202475;28;20054;-66
2023/08/17 00:28:06;;;;;;;14.80;8.35;;;;;;;20.46;55.02;97030.56;6198817;28;20050;-67
2023/08/17 00:31:10;;;;;;;13.30;7.63;;;;;;;20.46;55.03;97033.25;6210616;28;20038;-67
2023/08/17 00:34:11;;;;;;;15.13;8.45;;;;;;;20.49;55.00;97043.63;6205558;28;20192;-67
2023/08/17 00:37:13;;;;;;;16.30;7.57;;;;;;;20.56;54.93;97050.06;6202327;28;20046;-67
2023/08/17 00:40:14;;;;;;;15.60;8.68;;;;;;;20.53;54.82;97045.03;6201081;28;20050;-67
2023/08/17 00:43:18;;;;;;;16.35;8.60;;;;;;;20.50;55.17;97048.00;6204657;28;20046;-67
2023/08/17 00:46:23;;;;;;;11.57;7.97;;;;;;;20.48;54.93;97043.78;6197742;28;20042;-67
2023/08/17 00:49:26;;;;;;;15.27;8.57;;;;;;;20.41;55.10;97039.09;6205554;28;20046;-67
2023/08/17 00:52:32;;;;;;;15.25;8.57;;;;;;;20.45;55.11;97047.63;6202276;28;20042;-66
2023/08/17 00:55:36;;;;;;;18.30;9.88;;;;;;;20.40;55.28;97049.91;6201095;28;20046;-67
2023/08/17 00:58:37;;;;;;;18.02;7.97;;;;;;;20.36;55.42;97053.91;6196111;28;20541;-66
2023/08/17 01:01:42;;;;;;;15.60;7.43;;;;;;;20.33;55.56;97051.56;6204355;28;20144;-66
2023/08/17 01:04:48;;;;;;;14.57;8.27;;;;;;;20.34;55.64;97063.91;6194456;28;21124;-66
2023/08/17 01:07:54;;;;;;;17.30;7.38;;;;;;;20.36;55.85;97069.94;6208270;28;20433;-66
2023/08/17 01:11:25;;;;;;;14.73;8.00;;;;;;;20.41;55.88;97078.34;6204922;28;20038;-67
2023/08/17 01:14:52;;;;;;;14.38;7.55;;;;;;;20.41;55.90;97067.66;6203839;28;20054;-66
2023/08/17 01:18:14;;;;;;;16.23;7.55;;;;;;;20.39;56.13;97074.97;6202204;28;20042;-66
2023/08/17 01:21:20;;;;;;;15.82;8.02;;;;;;;20.36;56.11;97085.97;6205042;28;20042;-67
2023/08/17 01:24:24;;;;;;;17.45;7.95;;;;;;;20.33;56.32;97088.97;6206602;28;20119;-67
2023/08/17 01:27:33;;;;;;;20.85;11.60;;;;;;;20.26;56.04;97091.41;6195507;28;20049;-66
2023/08/17 01:30:45;;;;;;;15.77;7.63;;;;;;;20.26;56.03;97085.22;6186659;28;20042;-67
2023/08/17 01:34:08;;;;;;;13.75;7.80;;;;;;;20.29;56.33;97090.25;6196269;28;20042;-66
2023/08/17 01:37:17;;;;;;;16.88;9.15;;;;;;;20.26;55.95;97091.41;6196125;28;20038;-66
2023/08/17 01:40:26;;;;;;;16.35;8.55;;;;;;;20.28;55.87;97093.94;6197678;28;20062;-66
2023/08/17 01:43:28;;;;;;;16.90;8.82;;;;;;;20.34;55.46;97098.66;6211072;28;20473;-67
2023/08/17 01:46:34;;;;;;;18.15;9.23;;;;;;;20.41;55.53;97089.03;6196200;28;20049;-67
2023/08/17 01:49:36;;;;;;;14.15;9.60;;;;;;;20.44;55.37;97099.41;6203932;28;20395;-66
2023/08/17 01:52:40;;;;;;;18.73;9.40;;;;;;;20.50;55.63;97093.44;6184098;28;20046;-67
2023/08/17 01:55:43;;;;;;;19.80;9.43;;;;;;;20.59;55.58;97103.22;6199992;28;20061;-67
2023/08/17 01:58:45;;;;;;;14.57;7.93;;;;;;;20.65;55.78;97098.25;6209528;28;20046;-67
2023/08/17 02:01:46;;;;;;;13.55;8.38;;;;;;;20.71;55.25;97101.13;6201742;28;20038;-66
2023/08/17 02:04:47;;;;;;;17.73;8.18;;;;;;;20.85;54.95;97095.19;6178159;28;20046;-66
2023/08/17 02:07:51;;;;;;;17.60;8.23;;;;;;;21.02;54.63;97097.94;6197335;28;20237;-66
2023/08/17 02:10:52;;;;;;;22.00;8.75;;;;;;;21.10;54.63;97094.50;6179272;28;20274;-67
2023/08/17 02:13:55;;;;;;;16.88;8.27;;;;;;;21.23;54.04;97109.09;6193265;28;20123;-66
2023/08/17 02:16:58;;;;;;;20.27;9.57;;;;;;;21.33;53.89;97113.50;6196652;28;20042;-66
2023/08/17 02:20:00;;;;;;;16.40;7.53;;;;;;;21.43;53.79;97123.09;6196842;28;20544;-66
2023/08/17 02:23:02;;;;;;;14.73;8.55;;;;;;;21.53;53.99;97118.44;6182014;28;20573;-67
2023/08/17 02:26:05;;;;;;;17.02;8.45;;;;;;;21.62;53.49;97111.28;6199542;28;20421;-66
2023/08/17 02:29:09;;;;;;;15.57;8.05;;;;;;;21.69;53.29;97116.84;6200791;28;20425;-67
2023/08/17 02:32:16;;;;;;;14.85;8.18;;;;;;;21.77;52.77;97119.53;6195391;28;20038;-66
2023/08/17 02:35:17;;;;;;;18.60;7.97;;;;;;;21.92;52.13;97123.25;6197441;28;20047;-67
2023/08/17 02:38:21;;;;;;;15.65;8.10;;;;;;;22.05;51.21;97128.13;6194355;28;20057;-68
2023/08/17 02:41:25;;;;;;;16.80;8.02;;;;;;;22.09;50.92;97131.31;6198840;28;20050;-66
2023/08/17 02:44:29;;;;;;;17.58;8.65;;;;;;;22.14;50.68;97120.94;6201986;28;20046;-67
2023/08/17 02:47:37;;;;;;;14.50;8.13;;;;;;;22.25;50.49;97131.38;6204415;28;20034;-67
2023/08/17 02:50:41;;;;;;;22.27;7.70;;;;;;;22.35;50.06;97129.34;6188073;28;20058;-66
2023/08/17 02:53:47;;;;;;;19.33;8.68;;;;;;;22.50;49.75;97140.22;6197352;28;20042;-66
2023/08/17 02:56:51;;;;;;;17.00;8.73;;;;;;;22.65;49.04;97135.06;6205692;28;20034;-67
2023/08/17 02:59:52;;;;;;;18.70;9.30;;;;;;;22.77;48.79;97133.69;6206240;28;20054;-67
2023/08/17 03:02:59;;;;;;;20.13;8.98;;;;;;;22.93;48.62;97134.66;6202440;28;20486;-67
2023/08/17 03:06:02;;;;;;;13.20;7.95;;;;;;;22.98;48.65;97145.75;6201590;28;20703;-69
2023/08/17 03:09:09;;;;;;;15.73;7.70;;;;;;;23.04;48.61;97145.06;6200931;28;20034;-67
2023/08/17 03:12:11;;;;;;;17.10;8.18;;;;;;;23.04;48.72;97134.34;6200332;28;20037;-67
2023/08/17 03:15:12;;;;;;;19.00;8.57;;;;;;;23.10;48.64;97139.03;6204500;28;20136;-67
2023/08/17 03:18:16;;;;;;;17.77;9.07;;;;;;;23.14;48.76;97140.34;6200932;28;20430;-67
2023/08/17 03:21:18;;;;;;;22.30;11.25;;;;;;;23.24;48.38;97140.16;6201599;28;20050;-67
2023/08/17 03:24:22;;;;;;;26.13;12.57;;;;;;;23.31;47.67;97143.84;6204643;28;20042;-67
2023/08/17 03:27:24;;;;;;;25.52;13.38;;;;;;;23.33;48.06;97146.38;6200573;28;20050;-67
2023/08/17 03:30:26;;;;;;;24.75;12.23;;;;;;;23.49;47.91;97151.66;6200705;28;20513;-67
2023/08/17 03:33:29;;;;;;;24.40;10.90;;;;;;;23.60;47.95;97148.59;6207733;28;20113;-67
2023/08/17 03:36:34;;;;;;;27.60;12.15;;;;;;;23.66;47.48;97145.19;6201541;28;20056;-68
2023/08/17 03:39:35;;;;;;;27.58;12.55;;;;;;;23.80;47.13;97156.25;6201679;28;20409;-66
2023/08/17 03:42:37;;;;;;;25.27;12.70;;;;;;;23.90;46.68;97151.50;6202109;28;20517;-71
2023/08/17 03:45:41;;;;;;;25.60;10.77;;;;;;;23.98;46.56;97159.53;6195342;28;20422;-71
2023/08/17 03:48:42;;;;;;;28.75;12.35;;;;;;;24.09;46.02;97156.44;6200600;28;20457;-71
2023/08/17 03:51:46;;;;;;;24.15;11.63;;;;;;;24.16;45.89;97157.38;6205905;28;20034;-70
2023/08/17 03:54:54;;;;;;;26.45;11.88;;;;;;;24.36;45.46;97163.13;6201008;28;20057;-71
2023/08/17 03:57:58;;;;;;;31.65;13.32;;;;;;;24.50;45.04;97164.25;6206459;28;20049;-72
2023/08/17 04:01:03;;;;;;;31.70;13.95;;;;;;;24.44;44.96;97159.59;6202365;28;20058;-69
2023/08/17 04:04:04;;;;;;;33.70;14.88;;;;;;;24.36;45.49;97156.91;6175022;28;20293;-72
2023/08/17 04:07:08;;;;;;;36.42;14.98;;;;;;;24.36;45.73;97167.69;6200432;28;20557;-71
2023/08/17 04:10:14;;;;;;;52.00;16.33;;;;;;;24.31;45.24;97164.69;6198794;28;20038;-73
2023/08/17 04:13:20;;;;;;;41.85;17.25;;;;;;;24.22;45.43;97155.84;6203983;28;20548;-71
2023/08/17 04:16:24;;;;;;;42.55;19.30;;;;;;;24.05;45.97;97160.47;6190146;28;20042;-73
2023/08/17 04:19:28;;;;;;;41.45;21.30;;;;;;;24.10;45.38;97168.03;6199958;28;20149;-73
2023/08/17 04:22:36;;;;;;;47.55;22.13;;;;;;;24.17;45.35;97175.19;6198483;28;20042;-73
2023/08/17 04:25:43;;;;;;;49.03;21.80;;;;;;;24.49;44.64;97178.72;6187355;28;20425;-71
2023/08/17 04:28:45;;;;;;;45.65;22.17;;;;;;;24.86;43.84;97179.75;6200812;28;20053;-71
2023/08/17 04:31:50;;;;;;;38.08;20.55;;;;;;;25.19;43.17;97174.06;6204692;28;20045;-71
2023/08/17 04:34:54;;;;;;;38.40;19.55;;;;;;;25.40;42.52;97167.97;6201650;28;20462;-69
2023/08/17 04:38:01;;;;;;;39.20;17.55;;;;;;;25.77;41.75;97167.84;6203442;28;20406;-73
2023/08/17 04:41:05;;;;;;;37.75;18.80;;;;;;;26.34;40.73;97176.19;6200380;28;20049;-71
2023/08/17 04:44:10;;;;;;;33.65;17.75;;;;;;;27.01;39.47;97180.38;6203229;28;20035;-69
2023/08/17 04:47:14;;;;;;;40.70;18.85;;;;;;;27.47;38.61;97180.72;6201781;28;20039;-74
2023/08/17 04:50:18;;;;;;;33.88;17.50;;;;;;;27.95;37.38;97177.25;6200456;28;20043;-68
2023/08/17 04:53:22;;;;;;;32.17;16.17;;;;;;;28.49;36.19;97184.50;6197532;28;20046;-71
2023/08/17 04:56:26;;;;;;;34.03;16.70;;;;;;;29.18;34.81;97185.19;6200794;28;20038;-70
2023/08/17 04:59:34;;;;;;;28.95;15.18;;;;;;;30.17;33.69;97184.09;6198433;28;20045;-68
2023/08/17 05:02:36;;;;;;;27.15;13.82;;;;;;;31.15;31.81;97194.59;6197895;28;20197;-70
2023/08/17 05:05:37;;;;;;;22.40;13.07;;;;;;;31.74;30.51;97198.63;6201947;28;20144;-69
2023/08/17 05:08:41;;;;;;;28.60;13.00;;;;;;;33.09;28.60;97213.00;6202004;28;20046;-71
2023/08/17 05:11:43;;;;;;;28.10;15.40;;;;;;;33.74;27.65;97206.66;6198981;28;20042;-69
2023/08/17 05:14:44;;;;;;;22.92;12.80;;;;;;;35.19;25.41;97215.53;6196869;28;20042;-70
2023/08/17 05:17:46;;;;;;;21.43;11.97;;;;;;;36.77;23.47;97219.59;6199572;28;20132;-71
2023/08/17 05:20:50;;;;;;;21.08;9.60;;;;;;;38.84;21.24;97221.44;6206667;28;20969;-75
2023/08/17 05:23:54;;;;;;;15.55;8.40;;;;;;;41.58;18.33;97219.13;6209037;28;20046;-71
2023/08/17 05:27:01;;;;;;;14.82;7.07;;;;;;;42.16;16.87;97227.38;6197583;28;20527;-68
2023/08/17 05:30:02;;;;;;;12.73;7.00;;;;;;;42.92;16.08;97227.50;6197771;28;20041;-69
2023/08/17 05:33:08;;;;;;;10.73;5.90;;;;;;;44.32;15.05;97226.41;6209492;28;20037;-70
2023/08/17 05:36:15;;;;;;;13.60;5.47;;;;;;;44.13;14.59;97222.94;6201156;28;20671;-72
2023/08/17 05:39:21;;;;;;;15.48;6.72;;;;;;;42.47;15.77;97215.97;6196236;28;20060;-72
2023/08/17 05:42:27;;;;;;;10.82;5.40;;;;;;;40.52;17.36;97209.38;6198072;28;20037;-70
2023/08/17 05:45:31;;;;;;;14.15;7.00;;;;;;;39.09;18.10;97204.16;6197286;28;20506;-69
2023/08/17 05:48:35;;;;;;;11.40;6.18;;;;;;;38.53;18.85;97198.56;6190211;28;20125;-69
2023/08/17 05:51:44;;;;;;;9.38;5.65;;;;;;;38.45;17.95;97207.34;6206480;28;20038;-71
2023/08/17 05:54:46;;;;;;;6.60;4.32;;;;;;;37.96;18.34;97212.09;6202440;28;20054;-69
2023/08/17 05:57:48;;;;;;;6.45;3.88;;;;;;;37.66;18.20;97212.69;6188875;28;20053;-70
2023/08/17 06:00:49;;;;;;;7.90;4.38;;;;;;;37.22;18.68;97212.06;6199878;28;20074;-70
2023/08/17 06:03:55;;;;;;;5.38;3.22;;;;;;;37.07;17.82;97205.38;6198822;28;20042;-69
2023/08/17 06:06:59;;;;;;;7.78;3.90;;;;;;;37.46;17.83;97213.38;6195267;28;20069;-70
2023/08/17 06:10:06;;;;;;;11.23;4.75;;;;;;;37.61;17.56;97215.41;6196756;28;20044;-70
2023/08/17 06:13:09;;;;;;;14.23;9.43;;;;;;;37.65;17.79;97207.47;6184970;28;20579;-70
2023/08/17 06:16:13;;;;;;;5.78;3.28;;;;;;;37.59;17.06;97214.00;6198800;28;20049;-69
2023/08/17 06:19:17;;;;;;;16.17;9.18;;;;;;;37.26;17.49;97218.72;6202620;28;20042;-69
2023/08/17 06:22:26;;;;;;;15.10;5.10;;;;;;;38.05;17.15;97215.16;6202128;28;20497;-72
2023/08/17 06:25:34;;;;;;;12.70;7.45;;;;;;;40.43;15.84;97224.88;6189209;28;20608;-70
2023/08/17 06:28:37;;;;;;;10.90;8.57;;;;;;;42.72;14.43;97234.97;6198497;28;20050;-70
2023/08/17 06:31:41;;;;;;;6.78;3.55;;;;;;;44.91;13.07;97237.66;6201168;28;20526;-71
2023/08/17 06:34:46;;;;;;;6.80;3.08;;;;;;;47.07;11.60;97254.94;6202177;28;20038;-71
2023/08/17 06:37:53;;;;;;;8.90;3.22;;;;;;;47.80;11.29;97232.75;6194391;28;20143;-70
2023/08/17 06:40:57;;;;;;;5.88;2.88;;;;;;;47.64;11.00;97240.78;6198056;28;20054;-71
2023/08/17 06:44:04;;;;;;;4.57;2.78;;;;;;;47.73;10.84;97235.19;6195545;28;20039;-71
2023/08/17 06:47:10;;;;;;;4.47;2.17;;;;;;;48.43;10.63;97239.34;6201414;28;20042;-73
2023/08/17 06:50:11;;;;;;;8.90;2.25;;;;;;;49.16;9.89;97247.41;6194401;28;20042;-70
2023/08/17 06:53:15;;;;;;;5.85;3.55;;;;;;;49.33;9.73;97240.06;6184591;28;20194;-72
2023/08/17 06:56:17;;;;;;;4.05;2.67;;;;;;;49.48;9.77;97233.00;6200562;28;20068;-71
2023/08/17 06:59:22;;;;;;;3.17;2.17;;;;;;;49.08;9.95;97236.31;6196278;28;20065;-71
2023/08/17 07:02:30;;;;;;;3.83;2.08;;;;;;;48.74;10.26;97232.59;6196537;28;20034;-71
2023/08/17 07:05:31;;;;;;;9.13;5.53;;;;;;;47.99;10.21;97230.38;6200290;28;20121;-69
2023/08/17 07:08:33;;;;;;;3.72;2.65;;;;;;;49.56;9.84;97232.91;6193029;28;20057;-71
2023/08/17 07:11:37;;;;;;;3.30;2.50;;;;;;;51.58;8.64;97232.50;6198276;28;20045;-71
2023/08/17 07:14:44;;;;;;;2.88;2.50;;;;;;;53.02;8.05;97236.88;6181695;28;20525;-70
2023/08/17 07:17:50;;;;;;;2.72;1.58;;;;;;;54.16;7.57;97233.47;6197181;28;20054;-71
2023/08/17 07:20:55;;;;;;;1.60;1.50;;;;;;;54.12;7.12;97226.94;6195857;28;20449;-73
2023/08/17 07:24:15;;;;;;;8.30;5.75;;;;;;;54.69;6.67;97227.84;6194307;28;20046;-71
2023/08/17 07:27:25;;;;;;;6.60;1.92;;;;;;;55.28;6.53;97231.06;6196046;28;20054;-70
2023/08/17 07:30:29;;;;;;;1.70;0.90;;;;;;;55.08;6.52;97227.59;6202933;28;20046;-71
2023/08/17 07:33:36;;;;;;;3.90;1.10;;;;;;;55.40;5.99;97227.16;6196828;28;20034;-71
2023/08/17 07:36:42;;;;;;;1.95;1.45;;;;;;;55.95;5.87;97227.38;6199226;28;20046;-73
2023/08/17 07:39:51;;;;;;;2.17;1.50;;;;;;;56.29;5.57;97230.06;6200371;28;20050;-70
2023/08/17 07:42:54;;;;;;;2.30;1.27;;;;;;;55.60;5.74;97225.78;6199491;28;20058;-72
2023/08/17 07:46:01;;;;;;;6.35;4.18;;;;;;;55.62;5.71;97227.44;6203608;28;20410;-71
2023/08/17 07:49:07;;;;;;;3.10;1.27;;;;;;;55.80;5.75;97217.94;6206480;28;20046;-69
2023/08/17 07:52:11;;;;;;;2.42;1.10;;;;;;;56.46;5.53;97232.22;6211409;28;20049;-72
2023/08/17 07:55:15;;;;;;;3.67;1.10;;;;;;;56.66;5.48;97223.47;6212958;28;20046;-69
2023/08/17 07:58:20;;;;;;;1.90;1.48;;;;;;;57.10;4.99;97222.47;6208355;28;20029;-69
2023/08/17 08:01:24;;;;;;;3.83;1.20;;;;;;;57.49;5.13;97216.97;6218082;28;20528;-72
2023/08/17 08:04:29;;;;;;;1.52;0.85;;;;;;;58.07;5.08;97220.72;6233186;28;20046;-73
2023/08/17 08:07:35;;;;;;;3.38;1.00;;;;;;;58.38;5.15;97223.94;6234049;28;20042;-73
2023/08/17 08:10:41;;;;;;;2.28;0.75;;;;;;;56.78;5.08;97217.47;6232123;28;20081;-72
2023/08/17 08:13:49;;;;;;;1.30;1.20;;;;;;;56.39;5.46;97215.19;6206746;28;20073;-73
2023/08/17 08:16:56;;;;;;;;;;;;;;;59.08;4.90;97227.00;6202440;28;20526;-72
2023/08/17 08:19:59;;;;;;;2.40;0.70;;;;;;;58.76;4.25;97221.44;6226376;28;19926;-72
2023/08/17 08:23:03;;;;;;;1.33;0.73;;;;;;;56.62;5.20;97208.50;6219553;28;20046;-72
2023/08/17 08:26:10;;;;;;;2.85;0.98;;;;;;;53.72;6.36;97202.94;6206445;28;20422;-72
2023/08/17 08:29:17;;;;;;;1.63;1.10;;;;;;;50.50;7.63;97194.88;6208929;28;20458;-71
2023/08/17 08:32:24;;;;;;;3.22;1.15;;;;;;;47.45;8.93;97172.31;6214609;28;20064;-72
2023/08/17 08:35:29;;;;;;;1.50;1.33;;;;;;;47.79;8.89;97180.88;6198429;28;20051;-71
2023/08/17 08:38:36;;;;;;;3.38;2.72;;;;;;;49.70;8.40;97182.28;6205551;28;20197;-72
2023/08/17 08:41:43;;;;;;;3.22;1.67;;;;;;;52.52;7.31;97192.41;6206519;28;20053;-72
2023/08/17 08:44:53;;;;;;;1.88;1.15;;;;;;;54.26;5.76;97199.00;6207188;28;20053;-72
2023/08/17 08:48:00;;;;;;;2.83;1.20;;;;;;;52.38;6.33;97192.09;6185948;28;20081;-72
2023/08/17 08:51:12;;;;;;;2.63;0.90;;;;;;;52.46;6.84;97182.66;6202995;28;20422;-73
2023/08/17 08:54:24;;;;;;;7.85;5.85;;;;;;;53.70;6.52;97191.22;6205989;28;20126;-72
2023/08/17 08:57:31;;;;;;;1.98;1.35;;;;;;;53.93;6.25;97190.41;6205822;28;20045;-71
2023/08/17 09:00:33;;;;;;;2.40;1.10;;;;;;;53.17;6.38;97193.81;6198163;28;20043;-73
2023/08/17 09:03:44;;;;;;;2.10;1.00;;;;;;;52.37;6.79;97190.44;6203290;28;20042;-72
2023/08/17 09:06:50;;;;;;;1.65;1.08;;;;;;;50.45;7.46;97178.31;6212541;28;20034;-73
2023/08/17 09:09:52;;;;;;;4.97;1.55;;;;;;;48.83;8.25;97169.09;6200508;28;20214;-71
2023/08/17 09:12:57;;;;;;;1.83;1.50;;;;;;;49.17;8.10;97172.78;6194139;28;20042;-71
2023/08/17 09:16:01;;;;;;;6.70;4.43;;;;;;;50.35;7.43;97176.03;6200080;28;20057;-71
2023/08/17 09:19:05;;;;;;;4.90;2.63;;;;;;;48.43;8.56;97171.53;6205454;28;20050;-71
2023/08/17 09:22:07;;;;;;;4.70;2.28;;;;;;;47.23;8.83;97175.28;6201689;28;20046;-73
2023/08/17 09:25:10;;;;;;;3.38;1.65;;;;;;;46.72;9.51;97168.59;6200073;28;20042;-70
2023/08/17 09:28:19;;;;;;;1.52;1.38;;;;;;;47.06;9.28;97175.31;6196590;28;20137;-72
2023/08/17 09:31:23;;;;;;;2.65;1.67;;;;;;;47.79;8.70;97166.94;6194686;28;20411;-72
2023/08/17 09:34:24;;;;;;;3.28;1.50;;;;;;;48.73;8.25;97172.34;6194815;28;20445;-70
2023/08/17 09:37:27;;;;;;;2.67;1.60;;;;;;;48.72;8.20;97173.47;6201728;28;20045;-73
2023/08/17 09:40:31;;;;;;;3.85;1.70;;;;;;;48.82;8.29;97178.66;6204958;28;20050;-71
2023/08/17 09:43:34;;;;;;;2.53;1.08;;;;;;;50.05;7.62;97165.06;6209786;28;20292;-72
2023/08/17 09:46:39;;;;;;;4.72;2.10;;;;;;;49.59;7.87;97172.69;6201353;28;20043;-72
2023/08/17 09:49:55;;;;;;;3.00;1.58;;;;;;;48.06;8.50;97162.88;6205819;28;20050;-71
2023/08/17 09:53:02;;;;;;;3.28;1.67;;;;;;;46.21;9.28;97151.47;6194691;28;20042;-72
2023/08/17 09:56:07;;;;;;;3.30;2.17;;;;;;;45.66;9.86;97152.72;6194482;28;20038;-71
2023/08/17 09:59:11;;;;;;;2.85;1.35;;;;;;;45.89;9.51;97156.25;6201855;28;20058;-71
2023/08/17 10:02:23;;;;;;;3.40;1.83;;;;;;;45.44;9.69;97150.81;6199812;28;20124;-72
2023/08/17 10:05:30;;;;;;;4.28;1.73;;;;;;;43.74;10.73;97143.03;6195048;28;20069;-70
2023/08/17 10:08:43;;;;;;;2.75;1.42;;;;;;;42.58;11.72;97145.53;6200889;28;20046;-72
2023/08/17 10:11:47;;;;;;;1.83;1.30;;;;;;;41.87;11.94;97142.56;6199179;28;20565;-71
2023/08/17 10:15:03;;;;;;;3.78;1.60;;;;;;;41.34;12.67;97145.34;6197863;28;20045;-72
2023/08/17 10:18:20;;;;;;;2.72;1.60;;;;;;;40.60;12.98;97142.59;6195559;28;20490;-71
2023/08/17 10:21:28;;;;;;;3.88;2.22;;;;;;;39.85;13.65;97142.69;6197095;28;20042;-71
2023/08/17 10:24:36;;;;;;;3.50;1.73;;;;;;;39.22;13.66;97140.31;6206963;28;20045;-71
2023/08/17 10:27:40;;;;;;;4.95;2.20;;;;;;;38.48;14.73;97130.66;6197914;28;20049;-71
2023/08/17 10:30:42;;;;;;;3.15;2.00;;;;;;;37.76;14.94;97140.53;6196144;28;20097;-70
2023/08/17 10:33:49;;;;;;;7.35;2.53;;;;;;;37.37;15.79;97138.09;6198118;28;20042;-71
2023/08/17 10:36:51;;;;;;;4.55;2.00;;;;;;;37.21;15.49;97144.56;6196091;28;20536;-71
2023/08/17 10:39:53;;;;;;;3.72;2.03;;;;;;;37.03;15.90;97143.91;6194445;28;20588;-70
2023/08/17 10:42:59;;;;;;;6.65;2.72;;;;;;;36.64;16.26;97135.88;6190039;28;20224;-71
2023/08/17 10:46:17;;;;;;;10.90;2.42;;;;;;;36.34;16.50;97149.22;6203982;28;20129;-70
2023/08/17 10:49:26;;;;;;;7.28;2.42;;;;;;;35.94;16.70;97125.75;6193475;28;20042;-71
2023/08/17 10:52:29;;;;;;;6.43;2.80;;;;;;;35.78;17.40;97132.09;6195343;28;20042;-70
2023/08/17 10:55:40;;;;;;;6.38;2.80;;;;;;;36.20;17.19;97137.84;6195761;28;20034;-70
2023/08/17 10:58:44;;;;;;;4.70;2.33;;;;;;;37.01;16.18;97137.84;6201435;28;20075;-72
2023/08/17 11:01:53;;;;;;;6.15;2.60;;;;;;;38.58;15.34;97140.81;6201424;28;20183;-72
2023/08/17 11:05:00;;;;;;;2.80;2.28;;;;;;;39.20;14.73;97142.50;6199748;28;20047;-70
2023/08/17 11:08:04;;;;;;;4.28;2.17;;;;;;;40.31;14.08;97155.44;6206985;28;20042;-70
2023/08/17 11:11:19;;;;;;;6.18;2.67;;;;;;;40.93;13.42;97156.69;6201250;28;20053;-70
2023/08/17 11:14:22;;;;;;;4.03;2.03;;;;;;;41.06;13.19;97145.03;6199170;28;20050;-70
2023/08/17 11:17:29;;;;;;;2.63;2.20;;;;;;;40.74;13.44;97155.75;6195768;28;20045;-71
2023/08/17 11:20:36;;;;;;;2.85;2.17;;;;;;;39.65;14.21;97149.06;6199026;28;20042;-72
2023/08/17 11:23:42;;;;;;;5.15;3.42;;;;;;;39.94;14.30;97142.91;6206337;28;20049;-71
2023/08/17 11:26:46;;;;;;;2.80;1.98;;;;;;;40.79;13.17;97148.25;6201513;28;20050;-71
2023/08/17 11:29:52;;;;;;;5.25;2.10;;;;;;;41.29;12.92;97153.66;6199863;28;20049;-71
2023/08/17 11:32:59;;;;;;;2.78;2.03;;;;;;;41.53;12.84;97152.91;6209589;28;20034;-72
2023/08/17 11:36:05;;;;;;;1.85;1.75;;;;;;;41.71;13.02;97152.16;6198609;28;20042;-71
2023/08/17 11:39:08;;;;;;;2.78;1.63;;;;;;;41.83;12.45;97149.78;6208117;28;20060;-72
2023/08/17 11:42:12;;;;;;;1.55;1.38;;;;;;;41.22;12.82;97142.97;6203703;28;20504;-71
2023/08/17 11:45:18;;;;;;;1.98;1.77;;;;;;;40.17;13.31;97139.53;6198976;28;20469;-72
2023/08/17 11:48:24;;;;;;;2.25;1.95;;;;;;;39.87;13.85;97134.16;6197202;28;20054;-71
2023/08/17 11:51:31;;;;;;;2.83;2.03;;;;;;;39.87;13.57;97134.16;6207213;28;20494;-72
2023/08/17 11:54:40;;;;;;;3.15;1.90;;;;;;;40.17;13.74;97127.63;6199291;28;20044;-70
2023/08/17 11:57:46;;;;;;;6.35;2.35;;;;;;;40.55;13.87;97117.78;6202891;28;20042;-72
2023/08/17 12:00:48;;;;;;;9.52;2.67;;;;;;;40.90;13.88;97124.16;6204216;28;20046;-72
2023/08/17 12:03:54;;;;;;;5.03;2.38;;;;;;;40.95;14.27;97115.03;6199957;28;20046;-72
2023/08/17 12:06:56;;;;;;;6.22;2.13;;;;;;;41.10;13.54;97122.38;6203664;28;20165;-72
2023/08/17 12:10:04;;;;;;;3.60;1.90;;;;;;;41.16;13.75;97115.69;6205020;28;20043;-72
2023/08/17 12:13:06;;;;;;;2.95;1.98;;;;;;;41.29;13.58;97121.34;6202552;28;20057;-72
2023/08/17 12:16:14;;;;;;;4.65;2.30;;;;;;;41.36;13.80;97128.47;6199203;28;20050;-71
2023/08/17 12:19:21;;;;;;;4.57;2.10;;;;;;;41.06;13.50;97128.47;6208479;28;20042;-71
2023/08/17 12:22:27;;;;;;;5.07;2.55;;;;;;;40.93;13.52;97129.09;6197885;28;20518;-70
2023/08/17 12:25:36;;;;;;;6.45;2.83;;;;;;;40.74;13.67;97120.72;6196722;28;20049;-71
2023/08/17 12:28:41;;;;;;;4.20;2.13;;;;;;;40.41;13.77;97122.31;6205943;28;20433;-72
2023/08/17 12:31:47;;;;;;;2.97;2.10;;;;;;;39.64;14.43;97119.88;6198915;28;20447;-72
2023/08/17 12:34:51;;;;;;;4.57;2.42;;;;;;;38.91;14.82;97116.69;6202446;28;20045;-72
2023/08/17 12:37:55;;;;;;;8.20;2.38;;;;;;;38.92;14.82;97121.88;6213873;28;20042;-71
2023/08/17 12:40:56;;;;;;;;;;;;;;;38.81;15.33;97121.06;6206555;28;20038;-70
2023/08/17 12:44:03;;;;;;;5.72;3.00;;;;;;;38.00;16.04;97118.16;6202225;28;19953;-74
2023/08/17 12:47:04;;;;;;;5.57;3.35;;;;;;;37.01;16.95;97115.91;6207715;28;20128;-71
2023/08/17 12:50:09;;;;;;;5.07;2.70;;;;;;;36.22;17.33;97118.44;6211784;28;20050;-71
2023/08/17 12:53:14;;;;;;;4.88;2.30;;;;;;;35.36;17.96;97113.47;6201119;28;20560;-71
2023/08/17 12:56:20;;;;;;;4.40;2.67;;;;;;;34.83;18.48;97113.75;6202643;28;20498;-73
2023/08/17 12:59:24;;;;;;;3.05;2.30;;;;;;;34.38;18.76;97111.84;6199142;28;20425;-72
2023/08/17 13:02:30;;;;;;;4.97;2.67;;;;;;;34.02;19.09;97109.50;6205768;28;20416;-72
2023/08/17 13:05:35;;;;;;;4.65;3.00;;;;;;;33.70;19.42;97112.69;6214535;28;20048;-71
2023/08/17 13:08:36;;;;;;;3.47;2.13;;;;;;;33.46;19.72;97110.00;6202807;28;20135;-70
2023/08/17 13:11:40;;;;;;;4.97;2.90;;;;;;;33.24;20.25;97114.41;6195086;28;20050;-72
2023/08/17 13:14:44;;;;;;;7.68;2.88;;;;;;;33.02;20.21;97122.34;6199822;28;20059;-71
2023/08/17 13:17:48;;;;;;;6.13;3.13;;;;;;;32.87;20.49;97111.88;6195805;28;20111;-70
2023/08/17 13:20:54;;;;;;;4.00;2.65;;;;;;;32.72;20.76;97115.03;6186790;28;20034;-72
2023/08/17 13:24:03;;;;;;;7.22;2.60;;;;;;;32.58;21.01;97119.91;6201881;28;20050;-71
2023/08/17 13:27:05;;;;;;;5.80;2.63;;;;;;;32.55;21.13;97122.22;6200330;28;20464;-70
2023/08/17 13:30:09;;;;;;;6.43;3.00;;;;;;;32.58;20.77;97122.63;6204296;28;20093;-72
2023/08/17 13:33:11;;;;;;;4.90;2.90;;;;;;;32.58;21.09;97122.63;6201624;28;20129;-71
2023/08/17 13:36:12;;;;;;;27.20;16.00;;;;;;;32.60;20.71;97125.09;6198515;28;20042;-72
2023/08/17 13:39:19;;;;;;;12.38;7.05;;;;;;;32.79;21.03;97121.22;6196166;28;20038;-71
2023/08/17 13:42:20;;;;;;;7.40;3.55;;;;;;;32.94;20.63;97122.66;6196003;28;20045;-72
2023/08/17 13:45:24;;;;;;;6.45;2.72;;;;;;;32.97;20.88;97125.72;6208041;28;20046;-72
2023/08/17 13:48:31;;;;;;;6.70;3.17;;;;;;;32.97;20.72;97128.47;6200207;28;20745;-70
2023/08/17 13:51:35;;;;;;;4.32;2.67;;;;;;;33.00;20.55;97125.28;6204548;28;20414;-71
2023/08/17 13:54:36;;;;;;;13.27;8.90;;;;;;;33.15;20.38;97121.25;6203200;28;20064;-71
2023/08/17 13:57:40;;;;;;;6.53;3.97;;;;;;;33.26;20.43;97134.06;6202586;28;20081;-73
2023/08/17 14:00:45;;;;;;;8.05;3.15;;;;;;;33.30;20.06;97124.34;6196926;28;20092;-71
2023/08/17 14:03:46;;;;;;;5.20;2.63;;;;;;;33.22;20.34;97127.44;6191252;28;20046;-72
2023/08/17 14:06:52;;;;;;;4.27;3.20;;;;;;;33.12;20.16;97132.63;6200997;28;20054;-74
2023/08/17 14:09:57;;;;;;;5.95;3.60;;;;;;;33.04;20.43;97134.66;6196440;28;20093;-72
2023/08/17 14:13:01;;;;;;;3.35;2.78;;;;;;;32.97;20.46;97133.91;6195241;28;20054;-71
2023/08/17 14:16:08;;;;;;;4.85;2.95;;;;;;;32.85;20.64;97133.06;6201091;28;20038;-71
2023/08/17 14:19:15;;;;;;;3.15;2.38;;;;;;;32.66;20.79;97140.50;6203771;28;20041;-71
2023/08/17 14:22:19;;;;;;;5.15;2.88;;;;;;;32.47;21.07;97141.63;6207649;28;20037;-71
2023/08/17 14:25:27;;;;;;;7.35;4.18;;;;;;;32.32;21.18;97144.75;6204822;28;20181;-70
2023/08/17 14:28:31;;;;;;;4.00;2.40;;;;;;;32.14;21.79;97137.47;6210038;28;20141;-72